createdAt,value
2022-09-13T00:01:08.562Z,54.94
2022-09-13T00:03:42.250Z,54.40
2022-09-13T00:06:16.725Z,55.57
2022-09-13T00:08:45.848Z,57.23
2022-09-13T00:11:17.533Z,58.57
2022-09-13T00:13:46.886Z,60.14
2022-09-13T00:16:20.077Z,61.78
2022-09-13T00:18:48.368Z,64.82
2022-09-13T00:21:19.654Z,64.09
2022-09-13T00:23:50.498Z,60.72
2022-09-13T00:26:21.343Z,55.81
2022-09-13T00:28:51.797Z,55.51
2022-09-13T00:31:21.124Z,56.94
2022-09-13T00:33:49.068Z,58.75
2022-09-13T00:36:17.268Z,60.24
2022-09-13T00:38:45.035Z,61.76
2022-09-13T00:41:17.507Z,65.65
2022-09-13T00:43:55.870Z,64.19
2022-09-13T00:46:36.732Z,60.09
2022-09-13T00:49:19.652Z,55.62
2022-09-13T00:51:58.187Z,54.70
2022-09-13T00:54:31.550Z,56.10
2022-09-13T00:57:02.624Z,58.20
2022-09-13T00:59:42.566Z,59.45
2022-09-13T01:02:11.030Z,60.55
2022-09-13T01:04:39.551Z,64.01
2022-09-13T01:07:11.590Z,63.66
2022-09-13T01:09:44.198Z,59.52
2022-09-13T01:12:46.648Z,54.92
2022-09-13T01:15:14.611Z,55.25
2022-09-13T01:17:44.118Z,56.96
2022-09-13T01:20:13.512Z,58.37
2022-09-13T01:23:01.634Z,59.96
2022-09-13T01:26:08.282Z,61.37
2022-09-13T01:29:09.066Z,65.45
2022-09-13T01:32:03.663Z,62.01
2022-09-13T01:34:40.321Z,56.18
2022-09-13T01:37:15.908Z,56.03
2022-09-13T01:39:53.253Z,57.84
2022-09-13T01:42:33.478Z,59.43
2022-09-13T01:45:28.295Z,60.12
2022-09-13T01:48:03.497Z,61.93
2022-09-13T01:50:43.788Z,66.35
2022-09-13T01:53:27.385Z,63.93
2022-09-13T01:56:06.629Z,57.28
2022-09-13T01:58:58.264Z,55.81
2022-09-13T02:01:33.943Z,57.11
2022-09-13T02:04:08.094Z,59.09
2022-09-13T02:07:00.738Z,60.35
2022-09-13T02:09:34.531Z,64.78
2022-09-13T02:12:12.040Z,62.82
2022-09-13T02:14:43.493Z,56.44
2022-09-13T02:17:23.189Z,54.67
2022-09-13T02:20:16.510Z,55.87
2022-09-13T02:22:49.838Z,57.56
2022-09-13T02:25:21.682Z,59.48
2022-09-13T02:27:52.625Z,60.92
2022-09-13T02:30:22.412Z,65.03
2022-09-13T02:33:07.141Z,63.94
2022-09-13T02:35:50.093Z,56.76
2022-09-13T02:38:33.780Z,55.37
2022-09-13T02:41:18.012Z,56.67
2022-09-13T02:43:53.886Z,58.16
2022-09-13T02:46:52.600Z,59.60
2022-09-13T02:49:27.406Z,60.89
2022-09-13T02:52:24.027Z,65.28
2022-09-13T02:55:01.959Z,64.47
2022-09-13T02:57:41.355Z,57.05
2022-09-13T03:00:10.180Z,55.07
2022-09-13T03:02:41.443Z,56.28
2022-09-13T03:05:10.072Z,57.70
2022-09-13T03:07:38.006Z,59.19
2022-09-13T03:10:13.801Z,60.95
2022-09-13T03:13:27.861Z,64.92
2022-09-13T03:16:26.858Z,62.81
2022-09-13T03:19:00.893Z,54.77
2022-09-13T03:21:55.962Z,53.97
2022-09-13T03:24:38.291Z,55.42
2022-09-13T03:27:32.265Z,57.24
2022-09-13T03:30:07.618Z,58.83
2022-09-13T03:32:44.656Z,60.52
2022-09-13T03:35:37.858Z,64.73
2022-09-13T03:38:13.581Z,62.86
2022-09-13T03:40:52.012Z,55.66
2022-09-13T03:43:35.679Z,54.14
2022-09-13T03:46:12.107Z,55.50
2022-09-13T03:48:42.809Z,57.14
2022-09-13T03:51:11.583Z,58.90
2022-09-13T03:53:46.869Z,60.57
2022-09-13T03:56:20.173Z,64.41
2022-09-13T03:58:48.940Z,63.66
2022-09-13T04:01:24.581Z,57.00
2022-09-13T04:03:56.641Z,54.79
2022-09-13T04:06:25.560Z,56.11
2022-09-13T04:08:53.375Z,58.05
2022-09-13T04:11:21.630Z,59.53
2022-09-13T04:13:49.675Z,60.67
2022-09-13T04:16:17.897Z,64.63
2022-09-13T04:18:45.793Z,63.60
2022-09-13T04:21:13.890Z,56.74
2022-09-13T04:23:41.711Z,54.88
2022-09-13T04:26:09.744Z,56.19
2022-09-13T04:28:38.077Z,57.79
2022-09-13T04:31:05.835Z,59.17
2022-09-13T04:33:33.606Z,60.87
2022-09-13T04:36:02.205Z,64.52
2022-09-13T04:38:32.062Z,63.55
2022-09-13T04:40:59.914Z,56.81
2022-09-13T04:43:27.569Z,55.23
2022-09-13T04:45:55.466Z,56.40
2022-09-13T04:48:23.216Z,57.89
2022-09-13T04:50:50.990Z,59.21
2022-09-13T04:53:19.266Z,60.49
2022-09-13T04:55:47.391Z,65.08
2022-09-13T04:58:15.088Z,63.50
2022-09-13T05:00:43.126Z,57.13
2022-09-13T05:03:11.067Z,54.80
2022-09-13T05:05:38.833Z,56.01
2022-09-13T05:08:06.605Z,57.54
2022-09-13T05:10:34.421Z,59.18
2022-09-13T05:13:02.180Z,60.53
2022-09-13T05:15:29.919Z,64.30
2022-09-13T05:17:58.025Z,63.79
2022-09-13T05:20:25.955Z,58.25
2022-09-13T05:22:55.834Z,55.86
2022-09-13T05:25:26.077Z,56.46
2022-09-13T05:27:54.141Z,57.73
2022-09-13T05:30:21.986Z,59.15
2022-09-13T05:32:49.959Z,60.76
2022-09-13T05:35:18.252Z,65.22
2022-09-13T05:37:46.239Z,63.51
2022-09-13T05:40:14.092Z,57.59
2022-09-13T05:42:42.149Z,55.58
2022-09-13T05:45:10.653Z,57.01
2022-09-13T05:47:38.375Z,58.44
2022-09-13T05:50:12.043Z,60.33
2022-09-13T05:52:44.108Z,61.45
2022-09-13T05:55:11.931Z,65.39
2022-09-13T05:57:39.921Z,64.17
2022-09-13T06:00:08.379Z,57.39
2022-09-13T06:02:36.250Z,55.47
2022-09-13T06:05:04.699Z,56.95
2022-09-13T06:07:32.499Z,58.34
2022-09-13T06:10:00.256Z,60.12
2022-09-13T06:12:28.086Z,61.73
2022-09-13T06:14:55.912Z,65.59
2022-09-13T06:17:23.710Z,63.39
2022-09-13T06:19:51.821Z,57.23
2022-09-13T06:22:20.073Z,55.48
2022-09-13T06:24:47.934Z,57.01
2022-09-13T06:27:15.721Z,58.52
2022-09-13T06:29:43.693Z,59.78
2022-09-13T06:32:11.457Z,61.05
2022-09-13T06:34:39.256Z,64.63
2022-09-13T06:37:07.316Z,63.47
2022-09-13T06:39:35.154Z,57.27
2022-09-13T06:42:03.034Z,55.23
2022-09-13T06:44:31.066Z,56.25
2022-09-13T06:46:58.778Z,57.60
2022-09-13T06:49:26.617Z,59.17
2022-09-13T06:51:54.366Z,60.65
2022-09-13T06:54:22.180Z,61.59
2022-09-13T06:56:50.073Z,64.39
2022-09-13T06:59:17.754Z,62.39
2022-09-13T07:01:45.624Z,57.16
2022-09-13T07:04:16.448Z,55.70
2022-09-13T07:06:47.665Z,56.89
2022-09-13T07:09:19.037Z,57.68
2022-09-13T07:11:48.624Z,58.80
2022-09-13T07:14:19.919Z,59.77
2022-09-13T07:16:48.845Z,60.72
2022-09-13T07:19:20.130Z,63.84
2022-09-13T07:21:49.913Z,62.69
2022-09-13T07:24:18.906Z,57.20
2022-09-13T07:26:47.384Z,55.66
2022-09-13T07:29:19.213Z,56.86
2022-09-13T07:31:49.620Z,57.97
2022-09-13T07:34:23.392Z,59.18
2022-09-13T07:36:52.523Z,60.27
2022-09-13T07:39:22.900Z,61.16
2022-09-13T07:41:53.972Z,63.94
2022-09-13T07:44:22.994Z,62.37
2022-09-13T07:46:50.954Z,58.38
2022-09-13T07:49:19.747Z,56.79
2022-09-13T07:51:51.501Z,57.64
2022-09-13T07:54:20.702Z,59.02
2022-09-13T07:56:51.851Z,60.10
2022-09-13T07:59:20.280Z,60.78
2022-09-13T08:01:51.109Z,61.58
2022-09-13T08:04:24.318Z,63.70
2022-09-13T08:06:52.817Z,62.55
2022-09-13T08:09:20.876Z,56.59
2022-09-13T08:11:53.099Z,54.70
2022-09-13T08:14:23.277Z,55.34
2022-09-13T08:16:59.600Z,56.60
2022-09-13T08:19:27.472Z,57.74
2022-09-13T08:21:55.294Z,58.80
2022-09-13T08:24:23.351Z,59.27
2022-09-13T08:26:55.195Z,59.56
2022-09-13T08:29:23.065Z,60.25
2022-09-13T08:31:52.726Z,60.82
2022-09-13T08:34:21.377Z,60.80
2022-09-13T08:36:49.135Z,61.79
2022-09-13T08:39:17.184Z,64.12
2022-09-13T08:42:03.934Z,63.90
2022-09-13T08:44:45.521Z,58.06
2022-09-13T08:47:28.701Z,56.18
2022-09-13T08:50:13.534Z,57.02
2022-09-13T08:53:06.066Z,57.62
2022-09-13T08:56:08.703Z,58.29
2022-09-13T08:58:46.821Z,59.28
2022-09-13T09:01:19.544Z,60.29
2022-09-13T09:04:32.547Z,60.79
2022-09-13T09:07:11.984Z,61.30
2022-09-13T09:10:01.965Z,64.41
2022-09-13T09:12:39.062Z,62.93
2022-09-13T09:15:24.518Z,57.79
2022-09-13T09:18:12.376Z,55.96
2022-09-13T09:20:42.364Z,56.81
2022-09-13T09:23:31.943Z,57.95
2022-09-13T09:26:20.053Z,59.05
2022-09-13T09:28:54.198Z,60.08
2022-09-13T09:31:48.017Z,60.74
2022-09-13T09:34:18.611Z,61.51
2022-09-13T09:36:51.454Z,61.65
2022-09-13T09:39:19.320Z,64.39
2022-09-13T09:41:47.120Z,63.55
2022-09-13T09:44:22.460Z,58.84
2022-09-13T09:46:56.015Z,56.72
2022-09-13T09:49:54.494Z,57.03
2022-09-13T09:52:28.536Z,58.22
2022-09-13T09:55:03.926Z,59.44
2022-09-13T09:57:52.049Z,60.29
2022-09-13T10:00:22.289Z,61.05
2022-09-13T10:02:54.658Z,64.11
2022-09-13T10:05:24.099Z,62.75
2022-09-13T10:07:55.199Z,56.40
2022-09-13T10:10:30.593Z,54.85
2022-09-13T10:12:59.751Z,55.97
2022-09-13T10:15:33.910Z,57.05
2022-09-13T10:18:42.352Z,58.36
2022-09-13T10:21:27.150Z,59.14
2022-09-13T10:24:21.430Z,60.32
2022-09-13T10:26:49.178Z,60.61
2022-09-13T10:29:18.801Z,61.00
2022-09-13T10:31:50.144Z,61.39
2022-09-13T10:34:23.136Z,61.98
2022-09-13T10:36:56.474Z,64.09
2022-09-13T10:39:26.498Z,62.53
2022-09-13T10:41:58.622Z,57.23
2022-09-13T10:44:29.468Z,55.78
2022-09-13T10:47:01.645Z,55.95
2022-09-13T10:49:44.486Z,56.85
2022-09-13T10:52:33.517Z,57.23
2022-09-13T10:55:19.713Z,58.22
2022-09-13T10:57:49.531Z,59.26
2022-09-13T11:00:21.994Z,59.53
2022-09-13T11:03:14.910Z,59.47
2022-09-13T11:05:51.801Z,59.66
2022-09-13T11:08:42.734Z,59.82
2022-09-13T11:11:17.607Z,60.46
2022-09-13T11:14:07.370Z,61.29
2022-09-13T11:16:47.201Z,61.67
2022-09-13T11:19:47.113Z,61.61
2022-09-13T11:22:47.003Z,62.02
2022-09-13T11:25:39.807Z,65.26
2022-09-13T11:28:23.026Z,62.84
2022-09-13T11:31:19.477Z,55.86
2022-09-13T11:34:09.377Z,54.52
2022-09-13T11:36:49.130Z,55.52
2022-09-13T11:39:22.725Z,56.39
2022-09-13T11:42:19.302Z,57.13
2022-09-13T11:44:55.878Z,57.55
2022-09-13T11:47:37.889Z,58.50
2022-09-13T11:50:39.894Z,59.65
2022-09-13T11:53:10.413Z,60.25
2022-09-13T11:55:41.975Z,60.69
2022-09-13T11:58:18.920Z,61.57
2022-09-13T12:00:52.436Z,65.18
2022-09-13T12:03:31.932Z,64.25
2022-09-13T12:06:11.335Z,58.09
2022-09-13T12:08:46.679Z,55.73
2022-09-13T12:11:27.274Z,56.49
2022-09-13T12:14:15.265Z,57.45
2022-09-13T12:16:48.866Z,58.25
2022-09-13T12:19:23.627Z,59.05
2022-09-13T12:21:55.983Z,59.35
2022-09-13T12:24:49.115Z,60.12
2022-09-13T12:27:48.322Z,60.91
2022-09-13T12:30:24.609Z,61.52
2022-09-13T12:32:58.052Z,61.77
2022-09-13T12:35:36.241Z,64.35
2022-09-13T12:38:42.309Z,63.79
2022-09-13T12:41:47.581Z,56.54
2022-09-13T12:44:15.309Z,55.39
2022-09-13T12:47:11.003Z,56.15
2022-09-13T12:53:26.261Z,57.25
2022-09-13T12:56:02.467Z,58.21
2022-09-13T12:58:38.784Z,59.02
2022-09-13T13:01:09.874Z,59.49
2022-09-13T13:03:59.371Z,59.76
2022-09-13T13:06:31.042Z,60.24
2022-09-13T13:09:05.772Z,60.69
2022-09-13T13:11:47.473Z,61.17
2022-09-13T13:14:48.497Z,61.53
2022-09-13T13:17:36.538Z,65.07
2022-09-13T13:20:42.159Z,61.62
2022-09-13T13:23:18.958Z,54.67
2022-09-13T13:26:05.750Z,54.21
2022-09-13T13:28:46.041Z,55.15
2022-09-13T13:31:32.634Z,56.13
2022-09-13T13:34:06.671Z,57.09
2022-09-13T13:36:40.239Z,58.05
2022-09-13T13:39:28.346Z,59.23
2022-09-13T13:41:59.040Z,59.30
2022-09-13T13:44:26.830Z,59.83
2022-09-13T13:47:14.843Z,60.37
2022-09-13T13:50:04.176Z,60.52
2022-09-13T13:52:50.699Z,60.79
2022-09-13T13:55:28.612Z,61.29
2022-09-13T13:58:03.667Z,62.07
2022-09-13T14:00:35.118Z,65.36
2022-09-13T14:03:02.875Z,62.43
2022-09-13T14:05:46.166Z,56.31
2022-09-13T14:08:23.902Z,54.95
2022-09-13T14:11:14.394Z,55.45
2022-09-13T14:14:20.053Z,56.34
2022-09-13T14:16:47.792Z,57.34
2022-09-13T14:19:24.256Z,58.26
2022-09-13T14:22:16.091Z,59.04
2022-09-13T14:24:48.478Z,59.93
2022-09-13T14:27:37.774Z,60.97
2022-09-13T14:30:22.131Z,61.44
2022-09-13T14:32:54.177Z,64.46
2022-09-13T14:35:34.836Z,61.26
2022-09-13T14:38:17.627Z,54.58
2022-09-13T14:41:16.026Z,54.00
2022-09-13T14:43:45.856Z,54.78
2022-09-13T14:46:23.777Z,55.63
2022-09-13T14:48:57.693Z,56.72
2022-09-13T14:51:33.331Z,57.88
2022-09-13T14:54:11.331Z,58.41
2022-09-13T14:56:46.735Z,59.44
2022-09-13T14:59:33.455Z,60.45
2022-09-13T15:02:27.486Z,60.92
2022-09-13T15:04:58.541Z,61.46
2022-09-13T15:07:38.462Z,64.97
2022-09-13T15:10:32.325Z,63.41
2022-09-13T15:13:00.015Z,56.69
2022-09-13T15:15:33.059Z,55.01
2022-09-13T15:18:21.190Z,55.73
2022-09-13T15:21:04.014Z,56.66
2022-09-13T15:23:41.542Z,57.71
2022-09-13T15:26:21.259Z,58.86
2022-09-13T15:28:48.957Z,59.88
2022-09-13T15:31:25.477Z,60.74
2022-09-13T15:34:18.171Z,61.56
2022-09-13T15:36:47.743Z,65.66
2022-09-13T15:39:20.928Z,63.10
2022-09-13T15:42:03.038Z,57.95
2022-09-13T15:44:32.580Z,56.83
2022-09-13T15:47:04.610Z,58.07
2022-09-13T15:49:33.136Z,59.40
2022-09-13T15:52:03.233Z,60.92
2022-09-13T15:54:35.483Z,61.86
2022-09-13T15:57:07.537Z,64.97
2022-09-13T15:59:35.566Z,63.03
2022-09-13T16:02:17.612Z,58.18
2022-09-13T16:04:45.922Z,56.87
2022-09-13T16:07:14.212Z,58.08
2022-09-13T16:09:42.597Z,59.42
2022-09-13T16:12:11.080Z,60.76
2022-09-13T16:14:39.031Z,64.03
2022-09-13T16:17:19.303Z,62.77
2022-09-13T16:19:47.169Z,56.78
2022-09-13T16:22:15.816Z,55.75
2022-09-13T16:24:43.654Z,56.98
2022-09-13T16:27:16.474Z,58.48
2022-09-13T16:29:45.175Z,59.85
2022-09-13T16:32:13.020Z,61.20
2022-09-13T16:34:40.735Z,64.62
2022-09-13T16:37:08.779Z,63.06
2022-09-13T16:39:36.854Z,57.18
2022-09-13T16:42:05.446Z,55.57
2022-09-13T16:44:33.442Z,56.70
2022-09-13T16:47:01.461Z,58.08
2022-09-13T16:49:29.488Z,59.42
2022-09-13T16:51:59.578Z,60.57
2022-09-13T16:54:30.305Z,61.61
2022-09-13T16:56:58.796Z,65.25
2022-09-13T16:59:26.727Z,63.28
2022-09-13T17:01:54.653Z,57.14
2022-09-13T17:04:22.633Z,55.83
2022-09-13T17:06:50.845Z,57.14
2022-09-13T17:09:21.209Z,58.43
2022-09-13T17:11:48.969Z,59.77
2022-09-13T17:14:18.034Z,60.97
2022-09-13T17:16:49.306Z,64.50
2022-09-13T17:19:23.529Z,62.41
2022-09-13T17:21:52.255Z,56.08
2022-09-13T17:24:20.090Z,54.85
2022-09-13T17:26:48.637Z,55.96
2022-09-13T17:29:16.686Z,57.40
2022-09-13T17:31:44.908Z,58.91
2022-09-13T17:34:14.294Z,60.14
2022-09-13T17:36:42.822Z,61.32
2022-09-13T17:39:11.146Z,64.95
2022-09-13T17:41:39.263Z,63.10
2022-09-13T17:44:07.540Z,57.20
2022-09-13T17:46:35.305Z,55.74
2022-09-13T17:49:03.066Z,56.84
2022-09-13T17:51:32.870Z,58.29
2022-09-13T17:54:06.481Z,59.52
2022-09-13T17:56:44.979Z,60.57
2022-09-13T17:59:16.203Z,61.70
2022-09-13T18:01:47.425Z,65.43
2022-09-13T18:04:17.287Z,63.34
2022-09-13T18:06:45.080Z,57.97
2022-09-13T18:09:15.695Z,56.63
2022-09-13T18:11:43.741Z,57.68
2022-09-13T18:14:17.599Z,59.07
2022-09-13T18:16:46.690Z,60.30
2022-09-13T18:19:14.452Z,61.44
2022-09-13T18:21:42.753Z,65.12
2022-09-13T18:24:10.631Z,63.16
2022-09-13T18:26:38.482Z,58.02
2022-09-13T18:29:10.298Z,56.70
2022-09-13T18:31:40.077Z,57.81
2022-09-13T18:34:14.038Z,59.17
2022-09-13T18:36:42.529Z,60.48
2022-09-13T18:39:19.374Z,61.62
2022-09-13T18:41:48.395Z,65.34
2022-09-13T18:44:17.334Z,63.05
2022-09-13T18:46:46.817Z,58.61
2022-09-13T18:49:15.320Z,57.51
2022-09-13T18:51:45.324Z,58.64
2022-09-13T18:54:16.170Z,59.97
2022-09-13T18:56:45.462Z,61.21
2022-09-13T18:59:13.494Z,65.06
2022-09-13T19:01:43.285Z,63.50
2022-09-13T19:04:17.459Z,58.02
2022-09-13T19:06:56.158Z,55.73
2022-09-13T19:09:24.537Z,57.05
2022-09-13T19:11:53.930Z,58.31
2022-09-13T19:14:27.398Z,59.87
2022-09-13T19:16:57.671Z,61.13
2022-09-13T19:19:25.423Z,64.73
2022-09-13T19:21:54.116Z,63.07
2022-09-13T19:24:22.139Z,56.98
2022-09-13T19:26:52.105Z,55.49
2022-09-13T19:29:22.901Z,56.85
2022-09-13T19:31:53.554Z,58.43
2022-09-13T19:34:23.011Z,59.88
2022-09-13T19:36:57.590Z,61.14
2022-09-13T19:39:30.002Z,64.93
2022-09-13T19:42:00.531Z,63.08
2022-09-13T19:44:28.894Z,56.86
2022-09-13T19:47:36.356Z,55.43
2022-09-13T19:49:44.898Z,56.69
2022-09-13T19:52:12.664Z,58.40
2022-09-13T19:54:40.398Z,59.79
2022-09-13T19:57:10.011Z,61.14
2022-09-13T19:59:38.170Z,64.69
2022-09-13T20:02:06.764Z,62.98
2022-09-13T20:04:34.721Z,57.44
2022-09-13T20:07:02.795Z,56.15
2022-09-13T20:09:30.627Z,57.22
2022-09-13T20:12:00.509Z,58.80
2022-09-13T20:14:29.069Z,60.21
2022-09-13T20:16:57.287Z,61.43
2022-09-13T20:19:44.763Z,64.97
2022-09-13T20:22:14.395Z,62.84
2022-09-13T20:24:42.185Z,57.39
2022-09-13T20:27:10.551Z,56.04
2022-09-13T20:29:39.220Z,57.21
2022-09-13T20:32:08.114Z,58.79
2022-09-13T20:34:37.879Z,60.23
2022-09-13T20:37:05.749Z,61.47
2022-09-13T20:39:33.625Z,65.03
2022-09-13T20:42:01.453Z,63.08
2022-09-13T20:44:29.230Z,58.32
2022-09-13T20:46:57.148Z,57.01
2022-09-13T20:49:25.786Z,58.35
2022-09-13T20:51:53.538Z,59.80
2022-09-13T20:54:21.441Z,60.97
2022-09-13T20:56:49.322Z,64.46
2022-09-13T20:59:17.141Z,63.18
2022-09-13T21:01:45.087Z,57.50
2022-09-13T21:04:12.933Z,55.90
2022-09-13T21:07:02.619Z,57.22
2022-09-13T21:09:31.210Z,58.98
2022-09-13T21:11:59.315Z,60.92
2022-09-13T21:14:27.161Z,64.37
2022-09-13T21:16:56.833Z,63.11
2022-09-13T21:19:26.676Z,57.18
2022-09-13T21:21:55.050Z,55.64
2022-09-13T21:24:22.747Z,57.06
2022-09-13T21:26:50.540Z,58.73
2022-09-13T21:29:18.325Z,60.10
2022-09-13T21:31:46.136Z,61.18
2022-09-13T21:34:17.261Z,64.97
2022-09-13T21:36:46.433Z,63.17
2022-09-13T21:39:16.300Z,57.53
2022-09-13T21:41:44.531Z,56.15
2022-09-13T21:44:12.340Z,57.49
2022-09-13T21:46:41.237Z,59.17
2022-09-13T21:49:12.688Z,60.68
2022-09-13T21:51:44.613Z,61.75
2022-09-13T21:54:15.452Z,65.62
2022-09-13T21:56:49.687Z,63.40
2022-09-13T21:59:19.186Z,57.79
2022-09-13T22:01:51.261Z,56.46
2022-09-13T22:04:22.151Z,57.71
2022-09-13T22:06:53.631Z,59.18
2022-09-13T22:09:24.754Z,60.59
2022-09-13T22:11:52.941Z,64.33
2022-09-13T22:14:21.950Z,62.98
2022-09-13T22:16:52.852Z,56.80
2022-09-13T22:19:24.445Z,55.43
2022-09-13T22:21:59.410Z,56.76
2022-09-13T22:24:32.040Z,58.28
2022-09-13T22:27:00.267Z,59.88
2022-09-13T22:29:29.337Z,61.22
2022-09-13T22:31:57.083Z,65.02
2022-09-13T22:34:26.426Z,63.30
2022-09-13T22:36:55.433Z,58.17
2022-09-13T22:39:24.134Z,56.78
2022-09-13T22:41:52.733Z,57.95
2022-09-13T22:44:20.585Z,59.44
2022-09-13T22:46:48.736Z,60.54
2022-09-13T22:49:18.696Z,64.58
2022-09-13T22:51:48.342Z,63.06
2022-09-13T22:54:18.135Z,59.75
2022-09-13T22:56:46.377Z,56.15
2022-09-13T22:59:17.060Z,56.19
2022-09-13T23:01:45.912Z,57.80
2022-09-13T23:04:14.341Z,59.52
2022-09-13T23:06:44.095Z,60.99
2022-09-13T23:09:16.780Z,64.48
2022-09-13T23:11:45.492Z,64.28
2022-09-13T23:14:15.846Z,61.59
2022-09-13T23:16:46.200Z,56.24
2022-09-13T23:19:19.710Z,55.55
2022-09-13T23:21:47.490Z,57.14
2022-09-13T23:24:17.824Z,58.98
2022-09-13T23:26:47.045Z,60.52
2022-09-13T23:29:18.867Z,63.80
2022-09-13T23:31:47.686Z,63.56
2022-09-13T23:34:17.792Z,57.40
2022-09-13T23:36:46.558Z,55.80
2022-09-13T23:39:19.011Z,57.12
2022-09-13T23:41:49.200Z,58.72
2022-09-13T23:44:17.496Z,60.24
2022-09-13T23:46:45.591Z,61.73
2022-09-13T23:49:14.783Z,65.32
2022-09-13T23:51:43.168Z,64.13
2022-09-13T23:54:13.243Z,59.93
2022-09-13T23:56:41.780Z,54.35
2022-09-13T23:59:11.688Z,53.92
